Have a Safe July 4th! 

Flight Track Log - Related Links

Times and Time Zones

All times are in EDT time to prevent confusion due to time zone crossing. See the UAL143 flight status page for this flight to view local times or setup timezone preferences in your user account.

Time Position Orientation Groundspeed Altitude Reporting Facility
EDT Latitude Longitude Course Direction KTS MPH feet Rate Location/Type
Mon 06:30:00 PM 6.8440 2.8712 304° West  Level Estimated
Mon 06:31:00 PM 6.9106 2.7586 305° West  Level Estimated
Mon 06:32:00 PM 6.9201 2.6279 274° West  Level FlightAware Approximate
Mon 06:33:00 PM 6.9296 2.4972 274° West  Level FlightAware Approximate
Mon 06:34:00 PM 6.9961 2.3846 303° West  Level Estimated
Mon 06:35:00 PM 7.0626 2.2719 305° West  Level Estimated
Mon 06:36:00 PM 7.0795 2.1419 277° West  Level FlightAware Approximate
Mon 06:37:00 PM 7.1459 2.0291 306° West  Level Estimated
Mon 06:38:00 PM 7.2122 1.9164 315° West  Level Estimated
Mon 06:39:00 PM 7.2786 1.8035 306° West  Level Estimated
Mon 06:40:00 PM 7.3449 1.6907 304° West  Level Estimated
Mon 06:41:00 PM 7.3673 1.5615 280° West  Level FlightAware Approximate
Mon 06:42:00 PM 7.4336 1.4486 303° West  Level Estimated
Mon 06:43:00 PM 7.4625 1.3206 283° West  Level FlightAware Approximate
Mon 06:44:00 PM 7.4913 1.1927 283° West  Level FlightAware Approximate
Mon 06:45:00 PM 7.5574 1.0797 302° West  Level Estimated
Mon 06:46:00 PM 7.5902 0.9527 285° West  Level FlightAware Approximate
Mon 06:47:00 PM 7.6228 0.8256 285° West  Level FlightAware Approximate
Mon 06:48:00 PM 7.6889 0.7125 307° West  Level Estimated
Mon 06:49:00 PM 7.7549 0.5994 304° West  Level Estimated
Mon 06:50:00 PM 7.8206 0.4861 300° West  Level FlightAware Approximate
Mon 06:51:00 PM 7.8863 0.3727 300° West  Level FlightAware Approximate
Mon 06:52:00 PM 7.9519 0.2593 300° West  Level FlightAware Approximate
Mon 06:53:00 PM 8.0175 0.1458 300° West  Level FlightAware Approximate
Mon 06:54:00 PM 8.0831 0.0323 300° West  Level FlightAware Approximate
Mon 06:55:00 PM 8.1486 -0.0812 300° West  Level FlightAware Approximate
Mon 06:56:00 PM 8.2141 -0.1947 300° West  Level FlightAware Approximate
Mon 06:57:00 PM 8.2796 -0.3083 300° West  Level FlightAware Approximate
Mon 06:58:00 PM 8.3450 -0.4220 300° West  Level FlightAware Approximate
Mon 06:59:00 PM 8.4108 -0.5363 300° West  Level FlightAware Approximate
Mon 07:00:00 PM 8.4766 -0.6506 300° West  Level FlightAware Approximate
Mon 07:01:00 PM 8.5423 -0.7650 300° West  Level FlightAware Approximate
Mon 07:02:00 PM 8.6080 -0.8794 300° West  Level FlightAware Approximate
Mon 07:03:00 PM 8.6736 -0.9939 300° West  Level FlightAware Approximate
Mon 07:04:00 PM 8.7392 -1.1084 300° West  Level FlightAware Approximate
Mon 07:05:00 PM 8.8048 -1.2229 300° West  Level FlightAware Approximate
Mon 07:06:00 PM 8.8703 -1.3375 300° West  Level FlightAware Approximate
Mon 07:07:00 PM 8.9358 -1.4521 300° West  Level FlightAware Approximate
Mon 07:08:00 PM 9.0013 -1.5668 300° West  Level FlightAware Approximate
Mon 07:09:00 PM 9.0667 -1.6815 300° West  Level FlightAware Approximate
Mon 07:10:00 PM 9.1321 -1.7962 300° West  Level FlightAware Approximate
Mon 07:11:00 PM 9.1975 -1.9110 300° West  Level FlightAware Approximate
Mon 07:12:00 PM 9.2628 -2.0258 300° West  Level FlightAware Approximate
Mon 07:13:00 PM 9.3281 -2.1407 300° West  Level FlightAware Approximate
Mon 07:14:00 PM 9.3934 -2.2556 300° West  Level FlightAware Approximate
Mon 07:15:00 PM 9.4586 -2.3706 300° West  Level FlightAware Approximate
Mon 07:16:00 PM 9.5238 -2.4856 300° West  Level FlightAware Approximate
Mon 07:17:00 PM 9.5889 -2.6007 300° West  Level FlightAware Approximate
Mon 07:18:00 PM 9.6540 -2.7157 300° West  Level FlightAware Approximate
Mon 07:19:00 PM 9.7191 -2.8309 300° West  Level FlightAware Approximate
Mon 07:20:00 PM 9.7841 -2.9461 300° West  Level FlightAware Approximate
Mon 07:21:00 PM 9.8491 -3.0613 300° West  Level FlightAware Approximate
Mon 07:22:00 PM 9.9141 -3.1766 300° West  Level FlightAware Approximate
Mon 07:23:00 PM 9.9790 -3.2919 300° West  Level FlightAware Approximate
Mon 07:24:00 PM 10.0438 -3.4072 300° West  Level FlightAware Approximate
Mon 07:25:00 PM 10.1087 -3.5227 300° West  Level FlightAware Approximate
Mon 07:26:00 PM 10.1735 -3.6381 300° West  Level FlightAware Approximate
Mon 07:27:00 PM 10.2382 -3.7536 300° West  Level FlightAware Approximate
Mon 07:28:00 PM 10.3029 -3.8692 300° West  Level FlightAware Approximate
Mon 07:29:00 PM 10.3676 -3.9848 300° West  Level FlightAware Approximate
Mon 07:30:00 PM 10.4322 -4.1004 300° West  Level FlightAware Approximate
Mon 07:31:00 PM 10.4968 -4.2161 300° West  Level FlightAware Approximate
Mon 07:32:00 PM 10.5613 -4.3319 300° West  Level FlightAware Approximate
Mon 07:33:00 PM 10.6258 -4.4476 300° West  Level FlightAware Approximate
Mon 07:34:00 PM 10.6903 -4.5635 300° West  Level FlightAware Approximate
Mon 07:35:00 PM 10.7547 -4.6794 300° West  Level FlightAware Approximate
Mon 07:36:00 PM 10.8191 -4.7953 299° West  Level FlightAware Approximate
Mon 07:37:00 PM 10.8834 -4.9113 299° West  Level FlightAware Approximate
Mon 07:38:00 PM 10.9477 -5.0273 299° West  Level FlightAware Approximate
Mon 07:39:00 PM 11.0119 -5.1434 299° West  Level FlightAware Approximate
Mon 07:40:00 PM 11.0761 -5.2596 299° West  Level FlightAware Approximate
Mon 07:41:00 PM 11.1403 -5.3758 299° West  Level FlightAware Approximate
Mon 07:42:00 PM 11.2044 -5.4920 299° West  Level FlightAware Approximate
Mon 07:43:00 PM 11.2685 -5.6083 299° West  Level FlightAware Approximate
Mon 07:44:00 PM 11.3325 -5.7246 299° West  Level FlightAware Approximate
Mon 07:45:00 PM 11.3965 -5.8411 299° West  Level FlightAware Approximate
Mon 07:46:00 PM 11.4604 -5.9575 299° West  Level FlightAware Approximate
Mon 07:47:00 PM 11.5243 -6.0740 299° West  Level FlightAware Approximate
Mon 07:48:00 PM 11.5881 -6.1906 299° West  Level FlightAware Approximate
Mon 07:49:00 PM 11.6519 -6.3072 299° West  Level FlightAware Approximate
Mon 07:50:00 PM 11.7159 -6.4237 307° West  Level Estimated
Mon 07:51:00 PM 11.7877 -6.5354 303° West  Level FlightAware Approximate
Mon 07:52:00 PM 11.8594 -6.6472 303° West  Level FlightAware Approximate
Mon 07:53:00 PM 11.9310 -6.7591 303° West  Level FlightAware Approximate
Mon 07:54:00 PM 12.0026 -6.8710 303° West  Level FlightAware Approximate
Mon 07:55:00 PM 12.0742 -6.9830 303° West  Level FlightAware Approximate
Mon 07:56:00 PM 12.1457 -7.0950 303° West  Level FlightAware Approximate
Mon 07:57:00 PM 12.2171 -7.2071 303° West  Level FlightAware Approximate
Mon 07:58:00 PM 12.2886 -7.3193 303° West  Level FlightAware Approximate
Mon 07:59:00 PM 12.3599 -7.4315 303° West  Level FlightAware Approximate
Mon 08:00:00 PM 12.4313 -7.5438 303° West  Level FlightAware Approximate
Mon 08:01:00 PM 12.5025 -7.6561 303° West  Level FlightAware Approximate
Mon 08:02:00 PM 12.5738 -7.7685 303° West  Level FlightAware Approximate
Mon 08:03:00 PM 12.6372 -7.8858 307° West  Level Estimated
Mon 08:04:00 PM 12.7113 -7.9963 305° West  Level FlightAware Approximate
Mon 08:05:00 PM 12.7854 -8.1068 305° West  Level FlightAware Approximate
Mon 08:06:00 PM 12.8594 -8.2175 304° West  Level FlightAware Approximate
Mon 08:07:00 PM 12.9334 -8.3282 304° West  Level FlightAware Approximate
Mon 08:08:00 PM 13.0073 -8.4389 304° West  Level FlightAware Approximate
Mon 08:09:00 PM 13.0812 -8.5497 304° West  Level FlightAware Approximate
Mon 08:10:00 PM 13.1443 -8.6674 306° West  Level Estimated
Mon 08:11:00 PM 13.2214 -8.7759 306° West  Level FlightAware Approximate
Mon 08:12:00 PM 13.2985 -8.8845 306° West  Level FlightAware Approximate
Mon 08:13:00 PM 13.3756 -8.9932 306° West  Level FlightAware Approximate
Mon 08:14:00 PM 13.4526 -9.1019 306° West  Level FlightAware Approximate
Mon 08:15:00 PM 13.5296 -9.2107 306° West  Level FlightAware Approximate
Mon 08:16:00 PM 13.6065 -9.3195 306° West  Level FlightAware Approximate
Mon 08:17:00 PM 13.6833 -9.4285 306° West  Level FlightAware Approximate
Mon 08:18:00 PM 13.7602 -9.5375 306° West  Level FlightAware Approximate
Mon 08:19:00 PM 13.8370 -9.6465 306° West  Level FlightAware Approximate
Mon 08:20:00 PM 13.9137 -9.7557 306° West  Level FlightAware Approximate
Mon 08:21:00 PM 13.9904 -9.8649 306° West  Level FlightAware Approximate
Mon 08:22:00 PM 14.0670 -9.9742 306° West  Level FlightAware Approximate
Mon 08:23:00 PM 14.1436 -10.0836 306° West  Level FlightAware Approximate
Mon 08:24:00 PM 14.2201 -10.1930 306° West  Level FlightAware Approximate
Mon 08:25:00 PM 14.2966 -10.3025 306° West  Level FlightAware Approximate
Mon 08:26:00 PM 14.3730 -10.4121 306° West  Level FlightAware Approximate
Mon 08:27:00 PM 14.4494 -10.5218 306° West  Level FlightAware Approximate
Mon 08:28:00 PM 14.5257 -10.6315 306° West  Level FlightAware Approximate
Mon 08:29:00 PM 14.6020 -10.7413 306° West  Level FlightAware Approximate
Mon 08:30:00 PM 14.6781 -10.8511 306° West  Level FlightAware Approximate
Mon 08:31:00 PM 14.7542 -10.9609 306° West  Level FlightAware Approximate
Mon 08:32:00 PM 14.8302 -11.0708 306° West  Level FlightAware Approximate
Mon 08:33:00 PM 14.9062 -11.1807 306° West  Level FlightAware Approximate
Mon 08:34:00 PM 14.9821 -11.2908 306° West  Level FlightAware Approximate
Mon 08:35:00 PM 15.0580 -11.4009 306° West  Level FlightAware Approximate
Mon 08:36:00 PM 15.1338 -11.5111 305° West  Level FlightAware Approximate
Mon 08:37:00 PM 15.2095 -11.6214 305° West  Level FlightAware Approximate
Mon 08:38:00 PM 15.2852 -11.7317 305° West  Level FlightAware Approximate
Mon 08:39:00 PM 15.3609 -11.8422 305° West  Level FlightAware Approximate
Mon 08:40:00 PM 15.4365 -11.9527 305° West  Level FlightAware Approximate
Mon 08:41:00 PM 15.5120 -12.0633 305° West  Level FlightAware Approximate
Mon 08:42:00 PM 15.5875 -12.1740 305° West  Level FlightAware Approximate
Mon 08:43:00 PM 15.6629 -12.2847 305° West  Level FlightAware Approximate
Mon 08:44:00 PM 15.7383 -12.3956 305° West  Level FlightAware Approximate
Mon 08:45:00 PM 15.8136 -12.5065 305° West  Level FlightAware Approximate
Mon 08:46:00 PM 15.8888 -12.6175 305° West  Level FlightAware Approximate
Mon 08:47:00 PM 15.9640 -12.7286 305° West  Level FlightAware Approximate
Mon 08:48:00 PM 16.0392 -12.8398 305° West  Level FlightAware Approximate
Mon 08:49:00 PM 16.1143 -12.9510 305° West  Level FlightAware Approximate
Mon 08:50:00 PM 16.1893 -13.0624 305° West  Level FlightAware Approximate
Mon 08:51:00 PM 16.2643 -13.1738 305° West  Level FlightAware Approximate
Mon 08:52:00 PM 16.3392 -13.2853 305° West  Level FlightAware Approximate
Mon 08:53:00 PM 16.4140 -13.3969 305° West  Level FlightAware Approximate
Mon 08:54:00 PM 16.4888 -13.5086 305° West  Level FlightAware Approximate
Mon 08:55:00 PM 16.5636 -13.6203 305° West  Level FlightAware Approximate
Mon 08:56:00 PM 16.6383 -13.7322 305° West  Level FlightAware Approximate
Mon 08:57:00 PM 16.7129 -13.8441 305° West  Level FlightAware Approximate
Mon 08:58:00 PM 16.7874 -13.9562 305° West  Level FlightAware Approximate
Mon 08:59:00 PM 16.8619 -14.0683 305° West  Level FlightAware Approximate
Mon 09:00:00 PM 16.9364 -14.1805 305° West  Level FlightAware Approximate
Mon 09:01:00 PM 17.0107 -14.2928 305° West  Level FlightAware Approximate
Mon 09:02:00 PM 17.0850 -14.4052 305° West  Level FlightAware Approximate
Mon 09:03:00 PM 17.1445 -14.5269 313° West  Level Estimated
Mon 09:04:00 PM 17.2324 -14.6281 312° West  Level FlightAware Approximate
Mon 09:05:00 PM 17.3203 -14.7293 312° West  Level FlightAware Approximate
Mon 09:06:00 PM 17.4081 -14.8307 312° West  Level FlightAware Approximate
Mon 09:07:00 PM 17.4958 -14.9321 312° West  Level FlightAware Approximate
Mon 09:08:00 PM 17.5835 -15.0337 312° West  Level FlightAware Approximate
Mon 09:09:00 PM 17.6712 -15.1353 312° West  Level FlightAware Approximate
Mon 09:10:00 PM 17.7588 -15.2371 312° West  Level FlightAware Approximate
Mon 09:11:00 PM 17.8463 -15.3389 312° West  Level FlightAware Approximate
Mon 09:12:00 PM 17.9338 -15.4409 312° West  Level FlightAware Approximate
Mon 09:13:00 PM 18.0212 -15.5429 312° West  Level FlightAware Approximate
Mon 09:14:00 PM 18.1086 -15.6451 312° West  Level FlightAware Approximate
Mon 09:15:00 PM 18.1959 -15.7473 312° West  Level FlightAware Approximate
Mon 09:16:00 PM 18.2832 -15.8497 312° West  Level FlightAware Approximate
Mon 09:17:00 PM 18.3704 -15.9522 312° West  Level FlightAware Approximate
Mon 09:18:00 PM 18.4576 -16.0547 312° West  Level FlightAware Approximate
Mon 09:19:00 PM 18.5447 -16.1574 312° West  Level FlightAware Approximate
Mon 09:20:00 PM 18.6318 -16.2602 312° West  Level FlightAware Approximate
Mon 09:21:00 PM 18.7188 -16.3630 312° West  Level FlightAware Approximate
Mon 09:22:00 PM 18.8057 -16.4660 312° West  Level FlightAware Approximate
Mon 09:23:00 PM 18.8926 -16.5691 312° West  Level FlightAware Approximate
Mon 09:24:00 PM 18.9794 -16.6723 312° West  Level FlightAware Approximate
Mon 09:25:00 PM 19.0662 -16.7756 312° West  Level FlightAware Approximate
Mon 09:26:00 PM 19.1529 -16.8790 312° West  Level FlightAware Approximate
Mon 09:27:00 PM 19.2396 -16.9825 312° West  Level FlightAware Approximate
Mon 09:28:00 PM 19.3262 -17.0862 312° West  Level FlightAware Approximate
Mon 09:29:00 PM 19.4127 -17.1899 312° West  Level FlightAware Approximate
Mon 09:30:00 PM 19.4992 -17.2938 311° West  Level FlightAware Approximate
Mon 09:31:00 PM 19.5856 -17.3977 311° West  Level FlightAware Approximate
Mon 09:32:00 PM 19.6720 -17.5018 311° West  Level FlightAware Approximate
Mon 09:33:00 PM 19.7583 -17.6060 311° West  Level FlightAware Approximate
Mon 09:34:00 PM 19.8445 -17.7103 311° West  Level FlightAware Approximate
Mon 09:35:00 PM 19.9307 -17.8147 311° West  Level FlightAware Approximate
Mon 09:36:00 PM 20.0168 -17.9192 311° West  Level FlightAware Approximate
Mon 09:37:00 PM 20.1029 -18.0238 311° West  Level FlightAware Approximate
Mon 09:38:00 PM 20.1889 -18.1286 311° West  Level FlightAware Approximate
Mon 09:39:00 PM 20.2748 -18.2335 311° West  Level FlightAware Approximate
Mon 09:40:00 PM 20.3607 -18.3384 311° West  Level FlightAware Approximate
Mon 09:41:00 PM 20.4465 -18.4436 311° West  Level FlightAware Approximate
Mon 09:42:00 PM 20.5322 -18.5488 311° West  Level FlightAware Approximate
Mon 09:43:00 PM 20.6179 -18.6541 311° West  Level FlightAware Approximate
Mon 09:44:00 PM 20.7035 -18.7596 311° West  Level FlightAware Approximate
Mon 09:45:00 PM 20.7891 -18.8652 311° West  Level FlightAware Approximate
Mon 09:46:00 PM 20.8746 -18.9708 311° West  Level FlightAware Approximate
Mon 09:47:00 PM 20.9600 -19.0767 311° West  Level FlightAware Approximate
Mon 09:48:00 PM 21.0454 -19.1826 311° West  Level FlightAware Approximate
Mon 09:49:00 PM 21.1307 -19.2887 311° West  Level FlightAware Approximate
Mon 09:50:00 PM 21.2159 -19.3948 311° West  Level FlightAware Approximate
Mon 09:51:00 PM 21.3011 -19.5012 311° West  Level FlightAware Approximate
Mon 09:52:00 PM 21.3861 -19.6076 311° West  Level FlightAware Approximate
Mon 09:53:00 PM 21.4712 -19.7141 311° West  Level FlightAware Approximate
Mon 09:54:00 PM 21.5561 -19.8208 311° West  Level FlightAware Approximate
Mon 09:55:00 PM 21.6410 -19.9276 311° West  Level FlightAware Approximate
Mon 09:56:00 PM 21.7258 -20.0345 311° West  Level FlightAware Approximate
Mon 09:57:00 PM 21.8106 -20.1416 310° West  Level FlightAware Approximate
Mon 09:58:00 PM 21.8946 -20.2479 310° West  Level FlightAware Approximate
Mon 09:59:00 PM 21.9785 -20.3543 310° West  Level FlightAware Approximate
Mon 10:00:00 PM 22.0624 -20.4608 310° West  Level FlightAware Approximate
Mon 10:01:00 PM 22.1461 -20.5675 310° West  Level FlightAware Approximate
Mon 10:02:00 PM 22.2299 -20.6743 310° West  Level FlightAware Approximate
Mon 10:03:00 PM 22.3135 -20.7812 310° West  Level FlightAware Approximate
Mon 10:04:00 PM 22.3971 -20.8883 310° West  Level FlightAware Approximate
Mon 10:05:00 PM 22.4806 -20.9954 310° West  Level FlightAware Approximate
Mon 10:06:00 PM 22.5640 -21.1028 310° West  Level FlightAware Approximate
Mon 10:07:00 PM 22.6474 -21.2102 310° West  Level FlightAware Approximate
Mon 10:08:00 PM 22.7306 -21.3178 310° West  Level FlightAware Approximate
Mon 10:09:00 PM 22.8139 -21.4255 310° West  Level FlightAware Approximate
Mon 10:10:00 PM 22.8970 -21.5333 310° West  Level FlightAware Approximate
Mon 10:11:00 PM 22.9801 -21.6413 310° West  Level FlightAware Approximate
Mon 10:12:00 PM 23.0630 -21.7494 310° West  Level FlightAware Approximate
Mon 10:13:00 PM 23.1460 -21.8576 310° West  Level FlightAware Approximate
Mon 10:14:00 PM 23.2288 -21.9660 310° West  Level FlightAware Approximate
Mon 10:15:00 PM 23.3116 -22.0744 310° West  Level FlightAware Approximate
Mon 10:16:00 PM 23.3943 -22.1831 310° West  Level FlightAware Approximate
Mon 10:17:00 PM 23.4769 -22.2918 310° West  Level FlightAware Approximate
Mon 10:18:00 PM 23.5595 -22.4008 310° West  Level FlightAware Approximate
Mon 10:19:00 PM 23.6419 -22.5098 310° West  Level FlightAware Approximate
Mon 10:20:00 PM 23.7243 -22.6190 310° West  Level FlightAware Approximate
Mon 10:21:00 PM 23.8067 -22.7283 309° West  Level FlightAware Approximate
Mon 10:22:00 PM 23.8889 -22.8378 309° West  Level FlightAware Approximate
Mon 10:23:00 PM 23.9711 -22.9474 309° West  Level FlightAware Approximate
Mon 10:24:00 PM 24.0531 -23.0571 309° West  Level FlightAware Approximate
Mon 10:25:00 PM 24.1352 -23.1670 309° West  Level FlightAware Approximate
Mon 10:26:00 PM 24.2171 -23.2770 309° West  Level FlightAware Approximate
Mon 10:27:00 PM 24.2989 -23.3872 309° West  Level FlightAware Approximate
Mon 10:28:00 PM 24.3807 -23.4975 309° West  Level FlightAware Approximate
Mon 10:29:00 PM 24.4306 -23.6288 310° West  Level Estimated
Mon 10:30:00 PM 24.5141 -23.7376 310° West  Level FlightAware Approximate
Mon 10:31:00 PM 24.5975 -23.8466 310° West  Level FlightAware Approximate
Mon 10:32:00 PM 24.6809 -23.9557 310° West  Level FlightAware Approximate
Mon 10:33:00 PM 24.7642 -24.0650 310° West  Level FlightAware Approximate
Mon 10:34:00 PM 24.8474 -24.1744 310° West  Level FlightAware Approximate
Mon 10:35:00 PM 24.9305 -24.2839 310° West  Level FlightAware Approximate
Mon 10:36:00 PM 25.0135 -24.3936 310° West  Level FlightAware Approximate
Mon 10:37:00 PM 25.0965 -24.5035 310° West  Level FlightAware Approximate
Mon 10:38:00 PM 25.1794 -24.6135 310° West  Level FlightAware Approximate
Mon 10:39:00 PM 25.2622 -24.7236 310° West  Level FlightAware Approximate
Mon 10:40:00 PM 25.3449 -24.8339 310° West  Level FlightAware Approximate
Mon 10:41:00 PM 25.4275 -24.9444 310° West  Level FlightAware Approximate
Mon 10:42:00 PM 25.5101 -25.0550 310° West  Level FlightAware Approximate
Mon 10:43:00 PM 25.5926 -25.1657 310° West  Level FlightAware Approximate
Mon 10:44:00 PM 25.6749 -25.2766 310° West  Level FlightAware Approximate
Mon 10:45:00 PM 25.7572 -25.3877 309° West  Level FlightAware Approximate
Mon 10:46:00 PM 25.8395 -25.4989 309° West  Level FlightAware Approximate
Mon 10:47:00 PM 25.9216 -25.6103 309° West  Level FlightAware Approximate
Mon 10:48:00 PM 26.0036 -25.7218 309° West  Level FlightAware Approximate
Mon 10:49:00 PM 26.0856 -25.8335 309° West  Level FlightAware Approximate
Mon 10:50:00 PM 26.1675 -25.9453 309° West  Level FlightAware Approximate
Mon 10:51:00 PM 26.2493 -26.0573 309° West  Level FlightAware Approximate
Mon 10:52:00 PM 26.3310 -26.1695 309° West  Level FlightAware Approximate
Mon 10:53:00 PM 26.4126 -26.2818 309° West  Level FlightAware Approximate
Mon 10:54:00 PM 26.4941 -26.3943 309° West  Level FlightAware Approximate
Mon 10:55:00 PM 26.5756 -26.5069 309° West  Level FlightAware Approximate
Mon 10:56:00 PM 26.6569 -26.6197 309° West  Level FlightAware Approximate
Mon 10:57:00 PM 26.7382 -26.7326 309° West  Level FlightAware Approximate
Mon 10:58:00 PM 26.8193 -26.8458 309° West  Level FlightAware Approximate
Mon 10:59:00 PM 26.9004 -26.9590 309° West  Level FlightAware Approximate
Mon 11:00:00 PM 26.9814 -27.0725 309° West  Level FlightAware Approximate
Mon 11:01:00 PM 27.0623 -27.1861 309° West  Level FlightAware Approximate
Mon 11:02:00 PM 27.1431 -27.2998 309° West  Level FlightAware Approximate
Mon 11:03:00 PM 27.2238 -27.4137 309° West  Level FlightAware Approximate
Mon 11:04:00 PM 27.3044 -27.5278 309° West  Level FlightAware Approximate
Mon 11:05:00 PM 27.3850 -27.6421 308° West  Level FlightAware Approximate
Mon 11:06:00 PM 27.4654 -27.7565 308° West  Level FlightAware Approximate
Mon 11:07:00 PM 27.5458 -27.8711 308° West  Level FlightAware Approximate
Mon 11:08:00 PM 27.6260 -27.9859 308° West  Level FlightAware Approximate
Mon 11:09:00 PM 27.7062 -28.1008 308° West  Level FlightAware Approximate
Mon 11:10:00 PM 27.7862 -28.2159 308° West  Level FlightAware Approximate
Mon 11:11:00 PM 27.8662 -28.3312 308° West  Level FlightAware Approximate
Mon 11:12:00 PM 27.9095 -28.4693 285° West  Level Estimated
Mon 11:13:00 PM 27.9542 -28.6070 290° West  Level FlightAware Approximate
Mon 11:14:00 PM 27.9988 -28.7447 290° West  Level FlightAware Approximate
Mon 11:15:00 PM 28.0432 -28.8826 290° West  Level FlightAware Approximate
Mon 11:16:00 PM 28.0875 -29.0206 290° West  Level FlightAware Approximate
Mon 11:17:00 PM 28.1316 -29.1587 290° West  Level FlightAware Approximate
Mon 11:18:00 PM 28.1756 -29.2969 290° West  Level FlightAware Approximate
Mon 11:19:00 PM 28.2195 -29.4352 290° West  Level FlightAware Approximate
Mon 11:20:00 PM 28.2632 -29.5736 290° West  Level FlightAware Approximate
Mon 11:21:00 PM 28.3068 -29.7122 290° West  Level FlightAware Approximate
Mon 11:22:00 PM 28.3503 -29.8508 290° West  Level FlightAware Approximate
Mon 11:23:00 PM 28.3936 -29.9896 290° West  Level FlightAware Approximate
Mon 11:24:00 PM 28.4368 -30.1285 289° West  Level FlightAware Approximate
Mon 11:25:00 PM 28.4798 -30.2675 289° West  Level FlightAware Approximate
Mon 11:26:00 PM 28.5227 -30.4066 289° West  Level FlightAware Approximate
Mon 11:27:00 PM 28.5654 -30.5459 289° West  Level FlightAware Approximate
Mon 11:28:00 PM 28.6082 -30.6858 289° West  Level FlightAware Approximate
Mon 11:29:00 PM 28.6508 -30.8258 289° West  Level FlightAware Approximate
Mon 11:30:00 PM 28.6933 -30.9660 289° West  Level FlightAware Approximate
Mon 11:31:00 PM 28.7356 -31.1062 289° West  Level FlightAware Approximate
Mon 11:32:00 PM 28.7778 -31.2466 289° West  Level FlightAware Approximate
Mon 11:33:00 PM 28.8199 -31.3871 289° West  Level FlightAware Approximate
Mon 11:34:00 PM 28.8618 -31.5277 289° West  Level FlightAware Approximate
Mon 11:35:00 PM 28.9036 -31.6684 289° West  Level FlightAware Approximate
Mon 11:36:00 PM 28.9452 -31.8092 289° West  Level FlightAware Approximate
Mon 11:37:00 PM 28.9867 -31.9502 289° West  Level FlightAware Approximate
Mon 11:38:00 PM 29.0280 -32.0913 289° West  Level FlightAware Approximate
Mon 11:39:00 PM 29.0692 -32.2324 288° West  Level FlightAware Approximate
Mon 11:40:00 PM 29.1102 -32.3737 288° West  Level FlightAware Approximate
Mon 11:41:00 PM 29.1511 -32.5151 288° West  Level FlightAware Approximate
Mon 11:42:00 PM 29.1918 -32.6566 288° West  Level FlightAware Approximate
Mon 11:43:00 PM 29.2324 -32.7982 288° West  Level FlightAware Approximate
Mon 11:44:00 PM 29.2728 -32.9399 288° West  Level FlightAware Approximate
Mon 11:45:00 PM 29.3131 -33.0818 288° West  Level FlightAware Approximate
Mon 11:46:00 PM 29.3532 -33.2238 288° West  Level FlightAware Approximate
Mon 11:47:00 PM 29.3932 -33.3658 288° West  Level FlightAware Approximate
Mon 11:48:00 PM 29.4330 -33.5080 288° West  Level FlightAware Approximate
Mon 11:49:00 PM 29.4727 -33.6503 288° West  Level FlightAware Approximate
Mon 11:50:00 PM 29.5122 -33.7927 288° West  Level FlightAware Approximate
Mon 11:51:00 PM 29.5516 -33.9352 288° West  Level FlightAware Approximate
Mon 11:52:00 PM 29.5908 -34.0778 288° West  Level FlightAware Approximate
Mon 11:53:00 PM 29.6299 -34.2206 288° West  Level FlightAware Approximate
Mon 11:54:00 PM 29.6688 -34.3634 287° West  Level FlightAware Approximate
Mon 11:55:00 PM 29.7076 -34.5063 287° West  Level FlightAware Approximate
Mon 11:56:00 PM 29.7462 -34.6494 287° West  Level FlightAware Approximate
Mon 11:57:00 PM 29.7847 -34.7926 287° West  Level FlightAware Approximate
Mon 11:58:00 PM 29.8230 -34.9358 287° West  Level FlightAware Approximate
Mon 11:59:00 PM 29.8611 -35.0792 287° West  Level FlightAware Approximate
Tue 12:00:00 AM 29.8991 -35.2227 287° West  Level FlightAware Approximate
Tue 12:01:00 AM 29.9370 -35.3663 287° West  Level FlightAware Approximate
Tue 12:02:00 AM 29.9746 -35.5101 287° West  Level FlightAware Approximate
Tue 12:03:00 AM 30.0122 -35.6539 287° West  Level FlightAware Approximate
Tue 12:04:00 AM 30.0495 -35.7978 287° West  Level FlightAware Approximate
Tue 12:05:00 AM 30.0867 -35.9419 287° West  Level FlightAware Approximate
Tue 12:06:00 AM 30.1238 -36.0860 287° West  Level FlightAware Approximate
Tue 12:07:00 AM 30.1607 -36.2303 287° West  Level FlightAware Approximate
Tue 12:08:00 AM 30.1974 -36.3747 286° West  Level FlightAware Approximate
Tue 12:09:00 AM 30.2340 -36.5192 286° West  Level FlightAware Approximate
Tue 12:10:00 AM 30.2704 -36.6637 286° West  Level FlightAware Approximate
Tue 12:11:00 AM 30.3067 -36.8084 286° West  Level FlightAware Approximate
Tue 12:12:00 AM 30.3428 -36.9532 286° West  Level FlightAware Approximate
Tue 12:13:00 AM 30.3788 -37.0981 286° West  Level FlightAware Approximate
Tue 12:14:00 AM 30.4129 -37.2437 281° West  Level Estimated
Tue 12:15:00 AM 30.4456 -37.3897 285° West  Level FlightAware Approximate
Tue 12:16:00 AM 30.4782 -37.5358 285° West  Level FlightAware Approximate
Tue 12:17:00 AM 30.5106 -37.6821 284° West  Level FlightAware Approximate
Tue 12:18:00 AM 30.5429 -37.8284 284° West  Level FlightAware Approximate
Tue 12:19:00 AM 30.5750 -37.9748 284° West  Level FlightAware Approximate
Tue 12:20:00 AM 30.6069 -38.1213 284° West  Level FlightAware Approximate
Tue 12:21:00 AM 30.6399 -38.2675 272° West  Level Estimated
Tue 12:22:00 AM 30.6562 -38.4176 277° West  Level FlightAware Approximate
Tue 12:22:13 AM 31.0000 -40.0000 273° West 504 580 36,000  Level New York Oceanic (ODAPS)
Tue 12:23:00 AM 30.6723 -38.5677 277° West  Level FlightAware Approximate
Tue 12:24:00 AM 30.6882 -38.7178 277° West  Level FlightAware Approximate
Tue 12:25:00 AM 30.7040 -38.8680 277° West  Level FlightAware Approximate
Tue 12:26:00 AM 30.7195 -39.0182 277° West  Level FlightAware Approximate
Tue 12:27:00 AM 30.7349 -39.1685 277° West  Level FlightAware Approximate
Tue 12:28:00 AM 31.0342 -40.9826 272° West 504 580 36,000  Level FlightAware Transoceanic
Tue 12:29:00 AM 31.0392 -41.1465 272° West 504 580 36,000  Level FlightAware Transoceanic
Tue 12:29:29 AM 31.0333 -41.1167 272° West 506 582 36,000  Level New York Oceanic (ODAPS)
Tue 12:30:00 AM 31.0440 -41.3103 272° West 504 580 36,000  Level FlightAware Transoceanic
Tue 12:31:00 AM 31.0485 -41.4742 272° West 504 580 36,000  Level FlightAware Transoceanic
Tue 12:32:00 AM 31.0529 -41.6381 272° West 504 580 36,000  Level FlightAware Transoceanic
Tue 12:33:00 AM 31.0571 -41.8020 272° West 504 580 36,000  Level FlightAware Transoceanic
Tue 12:34:00 AM 31.0610 -41.9659 272° West 504 580 36,000  Level FlightAware Transoceanic
Tue 12:35:00 AM 31.0597 -42.1033 272° West 506 582 36,000  Level FlightAware Transoceanic
Tue 12:36:00 AM 31.0634 -42.2678 271° West 506 582 36,000  Level FlightAware Transoceanic
Tue 12:37:00 AM 31.0668 -42.4323 271° West 506 582 36,000  Level FlightAware Transoceanic
Tue 12:38:00 AM 31.0701 -42.5968 271° West 506 582 36,000  Level FlightAware Transoceanic
Tue 12:39:00 AM 31.0731 -42.7613 271° West 506 582 36,000  Level FlightAware Transoceanic
Tue 12:40:00 AM 31.0760 -42.9258 271° West 506 582 36,000  Level FlightAware Transoceanic
Tue 12:41:00 AM 31.0786 -43.0904 271° West 506 582 36,000  Level FlightAware Transoceanic
Tue 12:42:00 AM 31.0810 -43.2549 271° West 506 582 36,000  Level FlightAware Transoceanic
Tue 12:42:55 AM 31.0833 -43.3833 271° West 508 585 36,000  Level New York Oceanic (ODAPS)
Tue 12:43:00 AM 31.0832 -43.4195 271° West 506 582 36,000  Level FlightAware Transoceanic
Tue 12:44:00 AM 31.0852 -43.5840 271° West 506 582 36,000  Level FlightAware Transoceanic
Tue 12:45:00 AM 31.0870 -43.7486 271° West 506 582 36,000  Level FlightAware Transoceanic
Tue 12:46:00 AM 31.0886 -43.9132 271° West 506 582 36,000  Level FlightAware Transoceanic
Tue 12:47:00 AM 31.0899 -44.0778 271° West 506 582 36,000  Level FlightAware Transoceanic
Tue 12:48:00 AM 31.0911 -44.2424 270° West 506 582 36,000  Level FlightAware Transoceanic
Tue 12:49:00 AM 31.0924 -44.3762 270° West 508 585 36,000  Level FlightAware Transoceanic
Tue 12:50:00 AM 31.0931 -44.5417 270° West 508 585 36,000  Level FlightAware Transoceanic
Tue 12:51:00 AM 31.0937 -44.7072 270° West 508 585 36,000  Level FlightAware Transoceanic
Tue 12:52:00 AM 31.0941 -44.8727 270° West 508 585 36,000  Level FlightAware Transoceanic
Tue 12:53:00 AM 31.0942 -45.0382 270° West 508 585 36,000  Level FlightAware Transoceanic
Tue 12:54:00 AM 31.0941 -45.2037 270° West 508 585 36,000  Level FlightAware Transoceanic
Tue 12:55:00 AM 31.0938 -45.3692 270° West 508 585 36,000  Level FlightAware Transoceanic
Tue 12:56:00 AM 31.0933 -45.5347 270° West 508 585 36,000  Level FlightAware Transoceanic
Tue 12:56:50 AM 31.1000 -45.6833 270° West 510 587 36,000  Level New York Oceanic (ODAPS)
Tue 12:57:00 AM 31.0926 -45.7002 270° West 508 585 36,000  Level FlightAware Transoceanic
Tue 12:58:00 AM 31.0917 -45.8657 270° West 508 585 36,000  Level FlightAware Transoceanic
Tue 12:59:00 AM 31.0906 -46.0312 269° West 508 585 36,000  Level FlightAware Transoceanic
Tue 01:00:00 AM 31.0892 -46.1967 269° West 508 585 36,000  Level FlightAware Transoceanic
Tue 01:01:00 AM 31.0877 -46.3622 269° West 508 585 36,000  Level FlightAware Transoceanic
Tue 01:02:00 AM 31.0859 -46.5276 269° West 508 585 36,000  Level FlightAware Transoceanic
Tue 01:03:00 AM 31.0897 -46.6802 269° West 510 587 36,000  Level FlightAware Transoceanic
Tue 01:04:00 AM 31.0872 -46.8463 269° West 510 587 36,000  Level FlightAware Transoceanic
Tue 01:05:00 AM 31.0846 -47.0124 269° West 510 587 36,000  Level FlightAware Transoceanic
Tue 01:06:00 AM 31.0817 -47.1785 269° West 510 587 36,000  Level FlightAware Transoceanic
Tue 01:07:00 AM 31.0786 -47.3446 269° West 510 587 36,000  Level FlightAware Transoceanic
Tue 01:08:00 AM 31.0752 -47.5107 269° West 510 587 36,000  Level FlightAware Transoceanic
Tue 01:09:00 AM 31.0717 -47.6768 269° West 510 587 36,000  Level FlightAware Transoceanic
Tue 01:10:00 AM 31.0680 -47.8428 268° West 510 587 36,000  Level FlightAware Transoceanic
Tue 01:10:39 AM 31.0667 -47.9833 268° West 511 588 36,000  Level New York Oceanic (ODAPS)
Tue 01:11:00 AM 31.0640 -48.0088 268° West 510 587 36,000  Level FlightAware Transoceanic
Tue 01:12:00 AM 31.0599 -48.1749 268° West 510 587 36,000  Level FlightAware Transoceanic
Tue 01:13:00 AM 31.0555 -48.3409 268° West 510 587 36,000  Level FlightAware Transoceanic
Tue 01:14:00 AM 31.0509 -48.5069 268° West 510 587 36,000  Level FlightAware Transoceanic
Tue 01:15:00 AM 31.0461 -48.6729 268° West 510 587 36,000  Level FlightAware Transoceanic
Tue 01:16:00 AM 31.0411 -48.8388 268° West 510 587 36,000  Level FlightAware Transoceanic
Tue 01:17:00 AM 31.0347 -49.0696 268° West 511 588 36,000  Level FlightAware Transoceanic
Tue 01:18:00 AM 31.0294 -49.2247 268° West 511 588 36,000  Level FlightAware Transoceanic
Tue 01:19:00 AM 31.0238 -49.3798 268° West 511 588 36,000  Level FlightAware Transoceanic
Tue 01:20:00 AM 31.0182 -49.5349 268° West 511 588 36,000  Level FlightAware Transoceanic
Tue 01:21:00 AM 31.0123 -49.6899 267° West 511 588 36,000  Level FlightAware Transoceanic
Tue 01:22:00 AM 31.0062 -49.8450 267° West 511 588 36,000  Level FlightAware Transoceanic
Tue 01:22:56 AM 31.0000 -50.0000 279° West 496 571 36,000  Level New York Oceanic (ODAPS)
Tue 01:23:00 AM 31.0000 -50.0000 279° West 511 588 36,000  Level FlightAware Transoceanic
Tue 01:24:00 AM 31.0219 -50.1569 279° West 511 588 36,000  Level FlightAware Transoceanic
Tue 01:24:31 AM 31.0333 -50.2667 279° West 492 566 36,000  Level New York Oceanic (ODAPS)
Tue 01:25:00 AM 31.0436 -50.3138 279° West 511 588 36,000  Level FlightAware Transoceanic
Tue 01:26:00 AM 31.0651 -50.4708 279° West 511 588 36,000  Level FlightAware Transoceanic
Tue 01:27:00 AM 31.0864 -50.6279 279° West 511 588 36,000  Level FlightAware Transoceanic
Tue 01:28:00 AM 31.1076 -50.7850 279° West 511 588 36,000  Level FlightAware Transoceanic
Tue 01:29:00 AM 31.1305 -50.9575 279° West 496 571 36,000  Level FlightAware Transoceanic
Tue 01:30:00 AM 31.1589 -51.1990 279° West 492 566 36,000  Level FlightAware Transoceanic
Tue 01:31:00 AM 31.1791 -51.3546 279° West 492 566 36,000  Level FlightAware Transoceanic
Tue 01:32:00 AM 31.1992 -51.5103 279° West 492 566 36,000  Level FlightAware Transoceanic
Tue 01:33:00 AM 31.2191 -51.6660 278° West 492 566 36,000  Level FlightAware Transoceanic
Tue 01:34:00 AM 31.2388 -51.8218 278° West 492 566 36,000  Level FlightAware Transoceanic
Tue 01:35:00 AM 31.2584 -51.9777 278° West 492 566 36,000  Level FlightAware Transoceanic
Tue 01:36:00 AM 31.2777 -52.1337 278° West 492 566 36,000  Level FlightAware Transoceanic
Tue 01:37:00 AM 31.2968 -52.2897 278° West 492 566 36,000  Level FlightAware Transoceanic
Tue 01:38:00 AM 31.3158 -52.4458 278° West 492 566 36,000  Level FlightAware Transoceanic
Tue 01:38:26 AM 31.3167 -52.4833 278° West 487 560 36,000  Level New York Oceanic (ODAPS)
Tue 01:39:00 AM 31.3346 -52.6019 278° West 492 566 36,000  Level FlightAware Transoceanic
Tue 01:40:00 AM 31.3531 -52.7581 278° West 492 566 36,000  Level FlightAware Transoceanic
Tue 01:41:00 AM 31.3715 -52.9143 278° West 492 566 36,000  Level FlightAware Transoceanic
Tue 01:42:00 AM 31.3897 -53.0707 278° West 492 566 36,000  Level FlightAware Transoceanic
Tue 01:43:00 AM 31.4077 -53.2270 278° West 492 566 36,000  Level FlightAware Transoceanic
Tue 01:44:00 AM 31.4261 -53.4164 278° West 487 560 36,000  Level FlightAware Transoceanic
Tue 01:45:00 AM 31.4436 -53.5721 277° West 487 560 36,000  Level FlightAware Transoceanic
Tue 01:46:00 AM 31.4610 -53.7279 277° West 487 560 36,000  Level FlightAware Transoceanic
Tue 01:47:00 AM 31.4782 -53.8838 277° West 487 560 36,000  Level FlightAware Transoceanic
Tue 01:48:00 AM 31.4953 -54.0396 277° West 487 560 36,000  Level FlightAware Transoceanic
Tue 01:49:00 AM 31.5121 -54.1956 277° West 487 560 36,000  Level FlightAware Transoceanic
Tue 01:50:00 AM 31.5287 -54.3516 277° West 487 560 36,000  Level FlightAware Transoceanic
Tue 01:51:00 AM 31.5452 -54.5077 277° West 487 560 36,000  Level FlightAware Transoceanic
Tue 01:52:00 AM 31.5614 -54.6638 277° West 487 560 36,000  Level FlightAware Transoceanic
Tue 01:52:19 AM 31.5667 -54.6667 277° West 484 557 36,000  Level New York Oceanic (ODAPS)
Tue 01:53:00 AM 31.5775 -54.8200 277° West 487 560 36,000  Level FlightAware Transoceanic
Tue 01:54:00 AM 31.5933 -54.9762 277° West 487 560 36,000  Level FlightAware Transoceanic
Tue 01:55:00 AM 31.6090 -55.1325 277° West 487 560 36,000  Level FlightAware Transoceanic
Tue 01:56:00 AM 31.6245 -55.2888 277° West 487 560 36,000  Level FlightAware Transoceanic
Tue 01:57:00 AM 31.6398 -55.4452 277° West 487 560 36,000  Level FlightAware Transoceanic
Tue 01:58:00 AM 31.6593 -55.6040 276° West 484 557 36,000  Level FlightAware Transoceanic
Tue 01:59:00 AM 31.6740 -55.7604 276° West 484 557 36,000  Level FlightAware Transoceanic
Tue 02:00:00 AM 31.6886 -55.9169 276° West 484 557 36,000  Level FlightAware Transoceanic
Tue 02:01:00 AM 31.7030 -56.0734 276° West 484 557 36,000  Level FlightAware Transoceanic
Tue 02:02:00 AM 31.7172 -56.2299 276° West 484 557 36,000  Level FlightAware Transoceanic
Tue 02:03:00 AM 31.7312 -56.3865 276° West 484 557 36,000  Level FlightAware Transoceanic
Tue 02:04:00 AM 31.7450 -56.5432 276° West 484 557 36,000  Level FlightAware Transoceanic
Tue 02:05:00 AM 31.7586 -56.6999 276° West 484 557 36,000  Level FlightAware Transoceanic
Tue 02:06:00 AM 31.7720 -56.8566 276° West 484 557 36,000  Level FlightAware Transoceanic
Tue 02:06:04 AM 31.7667 -56.8333 276° West 482 555 36,000  Level New York Oceanic (ODAPS)
Tue 02:07:00 AM 31.7852 -57.0134 276° West 484 557 36,000  Level FlightAware Transoceanic
Tue 02:08:00 AM 31.7983 -57.1702 276° West 484 557 36,000  Level FlightAware Transoceanic
Tue 02:09:00 AM 31.8111 -57.3271 275° West 484 557 36,000  Level FlightAware Transoceanic
Tue 02:10:00 AM 31.8238 -57.4840 275° West 484 557 36,000  Level FlightAware Transoceanic
Tue 02:11:00 AM 31.8363 -57.6409 275° West 484 557 36,000  Level FlightAware Transoceanic
Tue 02:12:00 AM 31.8449 -57.7816 275° West 482 555 36,000  Level FlightAware Transoceanic
Tue 02:13:00 AM 31.8573 -57.9398 275° West 482 555 36,000  Level FlightAware Transoceanic
Tue 02:14:00 AM 31.8694 -58.0980 275° West 482 555 36,000  Level FlightAware Transoceanic
Tue 02:15:00 AM 31.8814 -58.2563 275° West 482 555 36,000  Level FlightAware Transoceanic
Tue 02:16:00 AM 31.8932 -58.4147 275° West 482 555 36,000  Level FlightAware Transoceanic
Tue 02:17:00 AM 31.9047 -58.5730 275° West 482 555 36,000  Level FlightAware Transoceanic
Tue 02:18:00 AM 31.9161 -58.7314 275° West 482 555 36,000  Level FlightAware Transoceanic
Tue 02:19:00 AM 31.9273 -58.8899 275° West 482 555 36,000  Level FlightAware Transoceanic
Tue 02:19:58 AM 31.9333 -59.0000 275° West 477 549 36,000  Level New York Oceanic (ODAPS)
Tue 02:20:00 AM 31.9382 -59.0484 275° West 482 555 36,000  Level FlightAware Transoceanic
Tue 02:21:00 AM 31.9490 -59.2069 275° West 482 555 36,000  Level FlightAware Transoceanic
Tue 02:22:00 AM 31.9596 -59.3654 274° West 482 555 36,000  Level FlightAware Transoceanic
Tue 02:23:00 AM 31.9700 -59.5240 274° West 482 555 36,000  Level FlightAware Transoceanic
Tue 02:24:00 AM 31.9802 -59.6826 274° West 482 555 36,000  Level FlightAware Transoceanic
Tue 02:25:00 AM 31.9902 -59.8413 274° West 482 555 36,000  Level FlightAware Transoceanic
Tue 02:26:00 AM 32.0000 -60.0000 286° West 477 549 36,000  Level FlightAware Transoceanic
Tue 02:26:16 AM 32.0000 -60.0000 286° West 484 557 36,000  Level New York Oceanic (ODAPS)
Tue 02:27:00 AM 32.0373 -60.1526 286° West 477 549 36,000  Level FlightAware Transoceanic
Tue 02:28:00 AM 32.0743 -60.3053 286° West 477 549 36,000  Level FlightAware Transoceanic
Tue 02:29:00 AM 32.1113 -60.4582 286° West 477 549 36,000  Level FlightAware Transoceanic
Tue 02:30:00 AM 32.1480 -60.6112 286° West 477 549 36,000  Level FlightAware Transoceanic
Tue 02:31:00 AM 32.1845 -60.7643 286° West 477 549 36,000  Level FlightAware Transoceanic
Tue 02:32:00 AM 32.2209 -60.9175 286° West 484 557 36,000  Level FlightAware Transoceanic
Tue 02:33:00 AM 32.2570 -61.0709 286° West 484 557 36,000 556 Level FlightAware Transoceanic
Tue 02:33:48 AM 32.2833 -61.1667 285° West 483 556 37,000  Climbing New York Oceanic (ODAPS)
Tue 02:34:00 AM 32.2930 -61.2243 285° West 484 557 36,000 -833 Descending FlightAware Transoceanic
Tue 02:35:00 AM 32.3288 -61.3779 285° West 484 557 36,000  Level FlightAware Transoceanic
Tue 02:36:00 AM 32.3644 -61.5316 285° West 484 557 36,000  Level FlightAware Transoceanic
Tue 02:37:00 AM 32.3998 -61.6855 285° West 484 557 36,000  Level FlightAware Transoceanic
Tue 02:38:00 AM 32.4351 -61.8394 285° West 484 557 36,000  Level FlightAware Transoceanic
Tue 02:39:00 AM 32.4701 -61.9935 285° West 484 557 36,000 500 Level FlightAware Transoceanic
Tue 02:40:00 AM 32.4967 -62.0960 285° West 483 556 37,000 500 Climbing FlightAware Transoceanic
Tue 02:41:00 AM 32.5316 -62.2513 285° West 483 556 37,000  Level FlightAware Transoceanic
Tue 02:42:00 AM 32.5663 -62.4067 285° West 483 556 37,000  Level FlightAware Transoceanic
Tue 02:43:00 AM 32.6008 -62.5623 285° West 483 556 37,000  Level FlightAware Transoceanic
Tue 02:44:00 AM 32.6352 -62.7180 285° West 483 556 37,000  Level FlightAware Transoceanic
Tue 02:45:00 AM 32.6693 -62.8738 285° West 483 556 37,000  Level FlightAware Transoceanic
Tue 02:46:00 AM 32.7032 -63.0297 284° West 483 556 37,000  Level FlightAware Transoceanic
Tue 02:47:00 AM 32.7370 -63.1857 284° West 483 556 37,000  Level FlightAware Transoceanic
Tue 02:47:38 AM 32.7667 -63.3000 284° West 488 562 37,000  Level New York Oceanic (ODAPS)
Tue 02:48:00 AM 32.7705 -63.3419 284° West 483 556 37,000  Level FlightAware Transoceanic
Tue 02:49:00 AM 32.8039 -63.4981 284° West 483 556 37,000  Level FlightAware Transoceanic
Tue 02:50:00 AM 32.8370 -63.6545 284° West 483 556 37,000  Level FlightAware Transoceanic
Tue 02:51:00 AM 32.8700 -63.8110 284° West 483 556 37,000  Level FlightAware Transoceanic
Tue 02:52:00 AM 32.9028 -63.9676 284° West 483 556 37,000  Level FlightAware Transoceanic
Tue 02:53:00 AM 32.9354 -64.1244 284° West 483 556 37,000  Level FlightAware Transoceanic
Tue 02:54:00 AM 32.9647 -64.2452 284° West 488 562 37,000  Level FlightAware Transoceanic
Tue 02:55:00 AM 32.9970 -64.4031 284° West 488 562 37,000  Level FlightAware Transoceanic
Tue 02:56:00 AM 33.0291 -64.5612 284° West 488 562 37,000  Level FlightAware Transoceanic
Tue 02:57:00 AM 33.0611 -64.7194 283° West 488 562 37,000  Level FlightAware Transoceanic
Tue 02:58:00 AM 33.0928 -64.8777 283° West 488 562 37,000  Level FlightAware Transoceanic
Tue 02:59:00 AM 33.1243 -65.0361 283° West 488 562 37,000  Level FlightAware Transoceanic
Tue 03:00:00 AM 33.1556 -65.1946 283° West 488 562 37,000  Level FlightAware Transoceanic
Tue 03:01:00 AM 33.1867 -65.3532 283° West 488 562 37,000  Level FlightAware Transoceanic
Tue 03:01:31 AM 33.2167 -65.5000 283° West 492 566 37,000  Level New York Oceanic (ODAPS)
Tue 03:02:00 AM 33.2176 -65.5119 283° West 488 562 37,000  Level FlightAware Transoceanic
Tue 03:03:00 AM 33.2483 -65.6708 283° West 488 562 37,000  Level FlightAware Transoceanic
Tue 03:04:00 AM 33.2789 -65.8298 283° West 488 562 37,000  Level FlightAware Transoceanic
Tue 03:05:00 AM 33.3092 -65.9888 283° West 488 562 37,000  Level FlightAware Transoceanic
Tue 03:06:00 AM 33.3393 -66.1480 283° West 488 562 37,000  Level FlightAware Transoceanic
Tue 03:07:00 AM 33.3982 -66.4573 283° West 492 566 37,000  Level FlightAware Transoceanic
Tue 03:08:00 AM 33.4277 -66.6172 282° West 492 566 37,000  Level FlightAware Transoceanic
Tue 03:09:00 AM 33.4571 -66.7773 282° West 492 566 37,000  Level FlightAware Transoceanic
Tue 03:10:00 AM 33.4862 -66.9374 282° West 492 566 37,000  Level FlightAware Transoceanic
Tue 03:11:00 AM 33.5151 -67.0977 282° West 492 566 37,000  Level FlightAware Transoceanic
Tue 03:12:00 AM 33.5438 -67.2580 282° West 492 566 37,000  Level FlightAware Transoceanic
Tue 03:13:00 AM 33.5723 -67.4185 282° West 492 566 37,000  Level FlightAware Transoceanic
Tue 03:14:00 AM 33.6006 -67.5791 282° West 492 566 37,000  Level FlightAware Transoceanic
Tue 03:15:00 AM 33.6287 -67.7398 282° West 492 566 37,000  Level FlightAware Transoceanic
Tue 03:15:27 AM 33.6167 -67.7333 282° West 493 567 37,000  Level New York Oceanic (ODAPS)
Tue 03:16:00 AM 33.6566 -67.9006 282° West 492 566 37,000  Level FlightAware Transoceanic
Tue 03:17:00 AM 33.6843 -68.0614 282° West 492 566 37,000  Level FlightAware Transoceanic
Tue 03:18:00 AM 33.7117 -68.2224 282° West 492 566 37,000  Level FlightAware Transoceanic
Tue 03:19:00 AM 33.7390 -68.3835 281° West 492 566 37,000  Level FlightAware Transoceanic
Tue 03:20:00 AM 33.7660 -68.5447 281° West 492 566 37,000  Level FlightAware Transoceanic
Tue 03:21:00 AM 33.7860 -68.7023 282° West 493 567 37,000  Level FlightAware Transoceanic
Tue 03:22:00 AM 33.8135 -68.8641 282° West 493 567 37,000  Level FlightAware Transoceanic
Tue 03:23:00 AM 33.8408 -69.0261 281° West 493 567 37,000  Level FlightAware Transoceanic
Tue 03:24:00 AM 33.8679 -69.1881 281° West 493 567 37,000  Level FlightAware Transoceanic
Tue 03:25:00 AM 33.8947 -69.3503 281° West 493 567 37,000  Level FlightAware Transoceanic
Tue 03:26:00 AM 33.9214 -69.5126 281° West 493 567 37,000  Level FlightAware Transoceanic
Tue 03:27:00 AM 33.9478 -69.6750 281° West 493 567 37,000  Level FlightAware Transoceanic
Tue 03:28:00 AM 33.9740 -69.8374 281° West 493 567 37,000  Level FlightAware Transoceanic
Tue 03:29:00 AM 34.0000 -70.0000 265° West 493 567 37,000 541 Level FlightAware Transoceanic
Tue 03:29:51 AM 34.0000 -69.9667 270° West 468 539 38,000  Climbing New York Oceanic (ODAPS)
Tue 03:30:00 AM 33.9883 -70.1553 265° West 493 567 37,000 -870 Descending FlightAware Transoceanic
Tue 03:31:00 AM 33.9765 -70.3105 265° West 493 567 37,000  Level FlightAware Transoceanic
Tue 03:32:00 AM 33.9644 -70.4657 265° West 493 567 37,000  Level FlightAware Transoceanic
Tue 03:33:00 AM 33.9522 -70.6209 265° West 493 567 37,000  Level FlightAware Transoceanic
Tue 03:34:00 AM 33.9398 -70.7760 264° West 493 567 37,000  Level FlightAware Transoceanic
Tue 03:35:00 AM 33.9271 -70.9310 264° West 493 567 37,000 500 Level FlightAware Transoceanic
Tue 03:36:00 AM 33.9143 -71.0861 264° West 468 539 38,000 500 Climbing FlightAware Transoceanic
Tue 03:37:00 AM 33.9013 -71.2410 264° West 468 539 38,000  Level FlightAware Transoceanic
Tue 03:38:00 AM 33.8881 -71.3959 264° West 468 539 38,000  Level FlightAware Transoceanic
Tue 03:39:00 AM 33.8747 -71.5508 264° West 468 539 38,000  Level FlightAware Transoceanic
Tue 03:40:00 AM 33.8611 -71.7056 264° West 468 539 38,000  Level FlightAware Transoceanic
Tue 03:41:00 AM 33.8473 -71.8604 264° West 468 539 38,000  Level FlightAware Transoceanic
Tue 03:42:00 AM 33.8333 -72.0151 264° West 468 539 38,000  Level FlightAware Transoceanic
Tue 03:43:00 AM 33.8191 -72.1698 264° West 468 539 38,000  Level FlightAware Transoceanic
Tue 03:43:11 AM 33.8167 -72.2167 264° West 485 558 38,000  Level New York Oceanic (ODAPS)
Tue 03:44:00 AM 33.8047 -72.3244 264° West 468 539 38,000  Level FlightAware Transoceanic
Tue 03:45:00 AM 33.7902 -72.4790 263° West 468 539 38,000  Level FlightAware Transoceanic
Tue 03:46:00 AM 33.7754 -72.6335 263° West 468 539 38,000  Level FlightAware Transoceanic
Tue 03:47:00 AM 33.7605 -72.7880 263° West 468 539 38,000  Level FlightAware Transoceanic
Tue 03:48:00 AM 33.7453 -72.9424 263° West 468 539 38,000  Level FlightAware Transoceanic
Tue 03:49:00 AM 33.7217 -73.1896 263° West 485 558 38,000  Level FlightAware Transoceanic
Tue 03:50:00 AM 33.7052 -73.3515 263° West 485 558 38,000  Level FlightAware Transoceanic
Tue 03:51:00 AM 33.6884 -73.5134 263° West 485 558 38,000  Level FlightAware Transoceanic
Tue 03:52:00 AM 33.6714 -73.6752 263° West 485 558 38,000  Level FlightAware Transoceanic
Tue 03:53:00 AM 33.6542 -73.8370 263° West 485 558 38,000  Level FlightAware Transoceanic
Tue 03:54:00 AM 33.6368 -73.9987 263° West 485 558 38,000  Level FlightAware Transoceanic
Tue 03:55:00 AM 33.6192 -74.1603 262° West 485 558 38,000 -18 Level FlightAware Transoceanic
Tue 03:59:29 AM 33.5792 -74.8444 262° West 485 558 37,900  Descending New York Center
Tue 04:00:30 AM 33.5631 -75.0006 263° West 480 552 38,000 50 Climbing New York Center
Tue 04:01:29 AM 33.5406 -75.1589 260° West 480 552 38,000 -50 Level New York Center
Tue 04:02:30 AM 33.5283 -75.3125 265° West 480 552 37,900 -50 Descending New York Center
Tue 04:03:29 AM 33.5222 -75.4689 267° West 475 547 37,900  Level New York Center
Tue 04:04:30 AM 33.5094 -75.6275 265° West 475 547 37,900  Level New York Center
Tue 04:05:31 AM 33.5050 -75.7817 268° West 475 547 37,900 350 Level New York Center
Tue 04:06:30 AM 33.4981 -75.9381 267° West 475 547 38,600 661 Climbing New York Center
Tue 04:07:38 AM 33.4864 -76.0978 265° West 479 551 39,300 488 Climbing Washington Center
Tue 04:09:10 AM 33.4719 -76.3372 266° West 462 532 39,900 276 Climbing Jacksonville Center
Tue 04:10:10 AM 33.4575 -76.5000 264° West 468 539 40,000 50 Climbing Jacksonville Center
Tue 04:11:10 AM 33.4464 -76.6525 265° West 468 539 40,000 -50 Level Jacksonville Center
Tue 04:12:10 AM 33.4350 -76.8078 265° West 468 539 39,900  Descending Jacksonville Center
Tue 04:13:10 AM 33.4236 -76.9628 265° West 468 539 40,000  Climbing Jacksonville Center
Tue 04:14:10 AM 33.4119 -77.1153 265° West 468 539 39,900  Descending Jacksonville Center
Tue 04:20:08 AM 33.3390 -78.0370 265° West 451 519 40,000 15 Climbing FlightAware ADS-B
Tue 04:20:43 AM 33.3320 -78.1260 265° West 449 517 40,000  Level FlightAware ADS-B
Tue 04:21:28 AM 33.3230 -78.2330 264° West 450 518 40,000  Level FlightAware ADS-B
Tue 04:22:13 AM 33.3140 -78.3400 264° West 447 514 40,000  Level FlightAware ADS-B
Tue 04:22:53 AM 33.3050 -78.4440 264° West 442 509 40,000  Level FlightAware ADS-B
Tue 04:23:38 AM 33.2950 -78.5540 264° West 443 510 40,000  Level FlightAware ADS-B
Tue 04:24:18 AM 33.2870 -78.6480 264° West 443 510 40,000  Level FlightAware ADS-B
Tue 04:24:58 AM 33.2780 -78.7490 264° West 443 510 40,000  Level FlightAware ADS-B
Tue 04:25:43 AM 33.2680 -78.8570 264° West 442 509 40,000  Level FlightAware ADS-B
Tue 04:26:23 AM 33.2600 -78.9510 264° West 443 510 40,000  Level FlightAware ADS-B
Tue 04:27:03 AM 33.2510 -79.0450 263° West 442 509 40,000  Level FlightAware ADS-B
Tue 04:28:05 AM 33.2370 -79.1880 263° West 441 507 40,000  Level FlightAware ADS-B
Tue 04:28:43 AM 33.2280 -79.2930 264° West 442 509 40,000  Level FlightAware ADS-B
Tue 04:29:22 AM 33.2200 -79.3750 263° West 443 510 40,000  Level FlightAware ADS-B
Tue 04:30:08 AM 33.2080 -79.4990 263° West 443 510 40,000  Level FlightAware ADS-B
Tue 04:30:48 AM 33.1990 -79.5960 264° West 446 513 40,000  Level FlightAware ADS-B
Tue 04:31:28 AM 33.1890 -79.6950 263° West 451 519 40,000  Level FlightAware ADS-B
Tue 04:32:13 AM 33.1790 -79.8060 264° West 453 521 40,000  Level FlightAware ADS-B
Tue 04:32:53 AM 33.1690 -79.9050 263° West 453 521 40,000  Level FlightAware ADS-B
Tue 04:33:38 AM 33.1580 -80.0170 263° West 454 522 40,000  Level FlightAware ADS-B
Tue 04:34:18 AM 33.1480 -80.1170 263° West 453 521 40,000  Level FlightAware ADS-B
Tue 04:35:03 AM 33.1370 -80.2280 263° West 452 520 40,000  Level FlightAware ADS-B
Tue 04:35:44 AM 33.1270 -80.3230 263° West 453 521 40,000  Level FlightAware ADS-B
Tue 04:36:26 AM 33.1150 -80.4340 263° West 453 521 40,000  Level FlightAware ADS-B
Tue 04:37:06 AM 33.1050 -80.5310 263° West 453 521 40,000  Level FlightAware ADS-B
Tue 04:37:43 AM 33.0960 -80.6190 263° West 452 520 40,000  Level FlightAware ADS-B
Tue 04:38:46 AM 33.0790 -80.7760 263° West 453 521 40,000  Level FlightAware ADS-B
Tue 04:39:21 AM 33.0710 -80.8580 263° West 452 520 40,000  Level FlightAware ADS-B
Tue 04:40:06 AM 33.0580 -80.9730 262° West 452 520 40,000  Level FlightAware ADS-B
Tue 04:40:45 AM 33.0490 -81.0620 263° West 452 520 40,000  Level FlightAware ADS-B
Tue 04:41:31 AM 33.0370 -81.1740 263° West 452 520 40,000  Level FlightAware ADS-B
Tue 04:42:16 AM 33.0240 -81.2900 262° West 451 519 40,000  Level FlightAware ADS-B
Tue 04:42:56 AM 33.0130 -81.3910 263° West 452 520 40,000  Level FlightAware ADS-B
Tue 04:43:37 AM 33.0010 -81.4920 262° West 452 520 40,000  Level FlightAware ADS-B
Tue 04:44:21 AM 32.9890 -81.5990 262° West 451 519 40,000  Level FlightAware ADS-B
Tue 04:44:56 AM 32.9800 -81.6800 262° West 450 518 40,000  Level FlightAware ADS-B
Tue 04:45:41 AM 32.9670 -81.7960 262° West 449 517 40,000  Level FlightAware ADS-B
Tue 04:46:26 AM 32.9550 -81.9030 262° West 448 516 40,000  Level FlightAware ADS-B
Tue 04:47:08 AM 32.9420 -82.0090 262° West 447 514 40,000  Level FlightAware ADS-B
Tue 04:47:53 AM 32.9300 -82.1130 262° West 447 514 40,000  Level FlightAware ADS-B
Tue 04:48:34 AM 32.9180 -82.2190 262° West 446 513 40,000  Level FlightAware ADS-B
Tue 04:49:14 AM 32.9060 -82.3130 261° West 445 512 40,000  Level FlightAware ADS-B
Tue 04:49:56 AM 32.8940 -82.4170 262° West 445 512 40,000  Level FlightAware ADS-B
Tue 04:50:38 AM 32.8820 -82.5190 262° West 443 510 40,000  Level FlightAware ADS-B
Tue 04:51:24 AM 32.8680 -82.6290 261° West 443 510 40,000  Level FlightAware ADS-B
Tue 04:52:04 AM 32.8570 -82.7260 262° West 444 511 40,000  Level FlightAware ADS-B
Tue 04:52:44 AM 32.8450 -82.8220 262° West 444 511 40,000  Level FlightAware ADS-B
Tue 04:53:28 AM 32.8320 -82.9290 262° West 445 512 40,000  Level FlightAware ADS-B
Tue 04:54:08 AM 32.8190 -83.0260 261° West 444 511 40,000  Level FlightAware ADS-B
Tue 04:54:52 AM 32.8060 -83.1310 262° West 445 512 40,000  Level FlightAware ADS-B
Tue 04:55:32 AM 32.7940 -83.2280 262° West 445 512 40,000  Level FlightAware ADS-B
Tue 04:56:14 AM 32.7810 -83.3310 261° West 444 511 40,000  Level FlightAware ADS-B
Tue 04:56:57 AM 32.7680 -83.4310 261° West 446 513 40,000  Level FlightAware ADS-B
Tue 04:57:42 AM 32.7540 -83.5420 262° West 447 514 40,000  Level FlightAware ADS-B
Tue 04:58:22 AM 32.7410 -83.6390 261° West 447 514 40,000  Level FlightAware ADS-B
Tue 04:59:02 AM 32.7290 -83.7350 262° West 448 516 40,000  Level FlightAware ADS-B
Tue 04:59:46 AM 32.7150 -83.8430 261° West 447 514 40,000  Level FlightAware ADS-B
Tue 05:00:26 AM 32.7020 -83.9390 261° West 446 513 40,000  Level FlightAware ADS-B
Tue 05:01:08 AM 32.6880 -84.0400 261° West 446 513 40,000  Level FlightAware ADS-B
Tue 05:01:52 AM 32.6740 -84.1460 261° West 447 514 40,000  Level FlightAware ADS-B
Tue 05:02:36 AM 32.6600 -84.2540 261° West 447 514 40,000  Level FlightAware ADS-B
Tue 05:03:16 AM 32.6470 -84.3490 261° West 447 514 40,000  Level FlightAware ADS-B
Tue 05:04:00 AM 32.6320 -84.4580 261° West 447 514 40,000  Level FlightAware ADS-B
Tue 05:04:42 AM 32.6180 -84.5590 261° West 449 517 40,000  Level FlightAware ADS-B
Tue 05:05:05 AM 32.6110 -84.6130 261° West 449 517 40,000  Level FlightAware ADS-B
Tue 05:06:04 AM 32.5910 -84.7570 261° West 449 517 40,000  Level FlightAware ADS-B
Tue 05:06:48 AM 32.5720 -84.8630 258° West 451 519 40,000  Level FlightAware ADS-B
Tue 05:07:59 AM 32.5360 -85.0180 255° West 450 518 40,000  Level FlightAware ADS-B
Tue 05:08:38 AM 32.5140 -85.1260 256° West 450 518 40,000  Level FlightAware ADS-B
Tue 05:09:22 AM 32.4920 -85.2310 256° West 449 517 40,000  Level FlightAware ADS-B
Tue 05:10:04 AM 32.4710 -85.3310 256° West 451 519 40,000  Level FlightAware ADS-B
Tue 05:10:43 AM 32.4520 -85.4140 255° West 451 519 40,000  Level FlightAware ADS-B
Tue 05:11:29 AM 32.4310 -85.5080 255° West 451 519 40,000  Level FlightAware ADS-B
Tue 05:12:16 AM 32.4030 -85.6450 256° West 452 520 40,000  Level FlightAware ADS-B
Tue 05:12:53 AM 32.3850 -85.7240 255° West 452 520 40,000  Level FlightAware ADS-B
Tue 05:13:41 AM 32.3630 -85.8220 255° West 452 520 40,000  Level FlightAware ADS-B
Tue 05:14:22 AM 32.3370 -85.9450 256° West 453 521 40,000  Level FlightAware ADS-B
Tue 05:15:04 AM 32.3140 -86.0470 255° West 453 521 40,000  Level FlightAware ADS-B
Tue 05:15:40 AM 32.2950 -86.1350 256° West 455 524 40,000  Level FlightAware ADS-B
Tue 05:16:44 AM 32.2630 -86.2760 255° West 455 524 40,000  Level FlightAware ADS-B
Tue 05:17:24 AM 32.2400 -86.3820 256° West 454 522 40,000  Level FlightAware ADS-B
Tue 05:18:22 AM 32.2110 -86.5090 255° West 454 522 40,000  Level FlightAware ADS-B
Tue 05:18:58 AM 32.1940 -86.5820 255° West 454 522 40,000  Level FlightAware ADS-B
Tue 05:19:46 AM 32.1720 -86.6800 255° West 454 522 40,000  Level FlightAware ADS-B
Tue 05:20:32 AM 32.1510 -86.7740 255° West 454 522 40,000  Level FlightAware ADS-B
Tue 05:21:21 AM 32.1280 -86.8730 255° West 454 522 40,000  Level FlightAware ADS-B
Tue 05:21:58 AM 32.1110 -86.9490 255° West 454 522 40,000  Level FlightAware ADS-B
Tue 05:22:46 AM 32.0890 -87.0470 255° West 454 522 40,000  Level FlightAware ADS-B
Tue 05:23:20 AM 32.0440 -87.2320 254° West 457 526 40,000  Level FlightAware ADS-B
Tue 05:24:11 AM 32.0190 -87.3360 254° West 457 526 40,000  Level FlightAware ADS-B
Tue 05:24:46 AM 32.0020 -87.4070 254° West 457 526 40,000  Level FlightAware ADS-B
Tue 05:25:49 AM 31.9710 -87.5350 254° West 457 526 40,000  Level FlightAware ADS-B
Tue 05:26:26 AM 31.9390 -87.6790 255° West 459 528 40,000  Level FlightAware ADS-B
Tue 05:27:06 AM 31.9170 -87.7720 254° West 459 528 40,000  Level FlightAware ADS-B
Tue 05:27:54 AM 31.8880 -87.8910 254° West 458 527 40,000  Level FlightAware ADS-B
Tue 05:28:34 AM 31.8660 -87.9820 254° West 458 527 40,000  Level FlightAware ADS-B
Tue 05:29:18 AM 31.8400 -88.0910 254° West 458 527 40,000  Level FlightAware ADS-B
Tue 05:30:00 AM 31.8160 -88.1890 254° West 458 527 40,000  Level FlightAware ADS-B
Tue 05:30:40 AM 31.7940 -88.2830 255° West 459 528 40,000  Level FlightAware ADS-B
Tue 05:31:23 AM 31.7710 -88.3770 254° West 460 529 40,000  Level FlightAware ADS-B
Tue 05:31:59 AM 31.7530 -88.4510 254° West 460 529 40,000  Level FlightAware ADS-B
Tue 05:33:02 AM 31.7110 -88.6230 254° West 459 528 40,000  Level FlightAware ADS-B
Tue 05:33:42 AM 31.6860 -88.7220 253° West 460 529 40,000  Level FlightAware ADS-B
Tue 05:34:28 AM 31.6580 -88.8340 254° West 461 531 40,000  Level FlightAware ADS-B
Tue 05:35:08 AM 31.6350 -88.9290 254° West 461 531 40,000  Level FlightAware ADS-B
Tue 05:36:19 AM 31.5960 -89.0790 253° West 461 531 40,000  Level FlightAware ADS-B
Tue 05:36:56 AM 31.5760 -89.1540 253° West 461 531 40,000  Level FlightAware ADS-B
Tue 05:37:52 AM 31.5380 -89.3120 254° West 464 534 40,000  Level FlightAware ADS-B
Tue 05:38:41 AM 31.5120 -89.4120 253° West 464 534 40,000  Level FlightAware ADS-B
Tue 05:39:17 AM 31.4930 -89.4860 253° West 464 534 40,000  Level FlightAware ADS-B
Tue 05:39:57 AM 31.4580 -89.6270 254° West 470 541 40,000  Level FlightAware ADS-B
Tue 05:40:43 AM 31.4300 -89.7390 254° West 471 542 40,000  Level FlightAware ADS-B
Tue 05:41:20 AM 31.4070 -89.8280 253° West 472 543 40,000  Level FlightAware ADS-B
Tue 05:42:08 AM 31.3760 -89.9470 253° West 473 544 40,000  Level FlightAware ADS-B
Tue 05:42:48 AM 31.3510 -90.0450 253° West 473 544 40,000  Level FlightAware ADS-B
Tue 05:43:34 AM 31.3210 -90.1590 253° West 472 543 40,000  Level FlightAware ADS-B
Tue 05:44:14 AM 31.2960 -90.2550 253° West 473 544 40,000  Level FlightAware ADS-B
Tue 05:44:54 AM 31.2720 -90.3480 253° West 474 545 40,000  Level FlightAware ADS-B
Tue 05:45:47 AM 31.2400 -90.4690 253° West 476 548 40,000  Level FlightAware ADS-B
Tue 05:46:35 AM 31.2140 -90.5690 253° West 476 548 40,000  Level FlightAware ADS-B
Tue 05:47:12 AM 31.1940 -90.6470 253° West 476 548 40,000  Level FlightAware ADS-B
Tue 05:48:12 AM 31.1610 -90.7720 253° West 476 548 40,000  Level FlightAware ADS-B
Tue 05:48:48 AM 31.1410 -90.8480 253° West 476 548 40,000  Level FlightAware ADS-B
Tue 05:49:37 AM 31.1140 -90.9500 253° West 476 548 40,000  Level FlightAware ADS-B
Tue 05:50:39 AM 31.0800 -91.0800 253° West 476 548 40,000  Level FlightAware ADS-B
Tue 05:51:28 AM 31.0540 -91.1820 253° West 476 548 40,000  Level FlightAware ADS-B
Tue 05:52:04 AM 31.0340 -91.2570 253° West 476 548 40,000  Level FlightAware ADS-B
Tue 05:52:52 AM 31.0080 -91.3580 253° West 476 548 40,000  Level FlightAware ADS-B
Tue 05:53:29 AM 30.9870 -91.4350 252° West 476 548 40,000  Level FlightAware ADS-B
Tue 05:54:17 AM 30.9610 -91.5350 253° West 476 548 40,000  Level FlightAware ADS-B
Tue 05:54:54 AM 30.9410 -91.6120 253° West 476 548 40,000  Level FlightAware ADS-B
Tue 05:55:26 AM 30.8586 -91.9000 253° West 480 552 40,000 -972 Level Houston Center
Tue 06:00:52 AM 30.6439 -92.6871 253° West 463 533 34,200 -1,092 Descending FlightAware ADS-B
Tue 06:01:23 AM 30.6231 -92.7619 252° West 465 535 33,500 -1,909 Descending FlightAware ADS-B
Tue 06:01:58 AM 30.5997 -92.8462 252° West 472 543 32,100 -2,182 Descending FlightAware ADS-B
Tue 06:02:29 AM 30.5783 -92.9225 252° West 490 564 31,100 -1,869 Descending FlightAware ADS-B
Tue 06:02:59 AM 30.5572 -92.9978 252° West 492 566 30,200 -1,967 Descending FlightAware ADS-B
Tue 06:03:30 AM 30.5356 -93.0746 252° West 501 577 29,100 -1,574 Descending FlightAware ADS-B
Tue 06:04:00 AM 30.5138 -93.1519 252° West 496 571 28,600 -1,200 Descending FlightAware ADS-B
Tue 06:04:30 AM 30.4924 -93.2276 252° West 494 568 27,900 -1,300 Descending FlightAware ADS-B
Tue 06:05:00 AM 30.4710 -93.3037 252° West 492 566 27,300 -1,600 Descending FlightAware ADS-B
Tue 06:05:30 AM 30.4498 -93.3781 252° West 485 558 26,300 -2,262 Descending FlightAware ADS-B
Tue 06:06:01 AM 30.4286 -93.4528 252° West 481 554 25,000 -2,459 Descending FlightAware ADS-B
Tue 06:06:31 AM 30.4077 -93.5259 252° West 476 548 23,800 -2,400 Descending FlightAware ADS-B
Tue 06:07:01 AM 30.3872 -93.5980 252° West 471 542 22,600 -2,300 Descending FlightAware ADS-B
Tue 06:07:31 AM 30.3669 -93.6690 252° West 462 532 21,500 -2,300 Descending FlightAware ADS-B
Tue 06:08:01 AM 30.3464 -93.7399 251° West 455 524 20,300 -2,262 Descending FlightAware ADS-B
Tue 06:08:32 AM 30.3265 -93.8092 252° West 448 516 19,200 -2,226 Descending FlightAware ADS-B
Tue 06:09:03 AM 30.3065 -93.8782 251° West 440 506 18,000 -2,262 Descending FlightAware ADS-B
Tue 06:09:33 AM 30.2870 -93.9451 251° West 433 498 16,900 -2,189 Descending FlightAware ADS-B
Tue 06:10:17 AM 30.2594 -94.0405 252° West 424 488 15,300 -2,108 Descending FlightAware ADS-B
Tue 06:10:47 AM 30.2409 -94.1046 252° West 415 478 14,300 -2,032 Descending FlightAware ADS-B
Tue 06:11:19 AM 30.2219 -94.1702 251° West 405 466 13,200 -1,935 Descending FlightAware ADS-B
Tue 06:11:49 AM 30.2040 -94.2312 251° West 391 450 12,300 -1,300 Descending FlightAware ADS-B
Tue 06:12:19 AM 30.1869 -94.2895 251° West 379 436 11,900 -1,574 Descending FlightAware ADS-B
Tue 06:12:50 AM 30.1698 -94.3472 251° West 364 419 10,700 -1,672 Descending FlightAware ADS-B
Tue 06:13:20 AM 30.1544 -94.4006 252° West 330 380 10,200 -712 Descending FlightAware ADS-B
Tue 06:13:49 AM 30.1412 -94.4453 251° West 296 341 10,000 -545 Descending FlightAware ADS-B
Tue 06:14:04 AM 30.1347 -94.4674 251° West 282 325 9,800 -1,000 Descending FlightAware ADS-B
Tue 06:14:19 AM 30.1283 -94.4887 251° West 281 323 9,500 -1,200 Descending FlightAware ADS-B
Tue 06:14:34 AM 30.1218 -94.5104 251° West 281 323 9,200 -1,200 Descending FlightAware ADS-B
Tue 06:14:49 AM 30.1155 -94.5320 251° West 280 322 8,900 -1,400 Descending FlightAware ADS-B
Tue 06:15:04 AM 30.1093 -94.5530 251° West 280 322 8,500 -1,400 Descending FlightAware ADS-B
Tue 06:15:19 AM 30.1031 -94.5742 251° West 280 322 8,200 -1,161 Descending FlightAware ADS-B
Tue 06:15:35 AM 30.0966 -94.5965 251° West 279 321 7,900 -1,313 Descending FlightAware ADS-B
Tue 06:15:51 AM 30.0902 -94.6183 251° West 279 321 7,500 -1,355 Descending FlightAware ADS-B
Tue 06:16:06 AM 30.0838 -94.6397 251° West 278 320 7,200 -1,286 Descending FlightAware ADS-B
Tue 06:16:19 AM 30.0782 -94.6586 251° West 278 320 6,900 -1,286 Descending FlightAware ADS-B
Tue 06:16:34 AM 30.0719 -94.6800 251° West 278 320 6,600 -1,161 Descending FlightAware ADS-B
Tue 06:16:50 AM 30.0656 -94.7011 251° West 277 319 6,300 -1,400 Descending FlightAware ADS-B
Tue 06:17:04 AM 30.0597 -94.7209 251° West 277 319 5,900 -1,448 Descending FlightAware ADS-B
Tue 06:17:19 AM 30.0534 -94.7421 251° West 276 318 5,600 -1,200 Descending FlightAware ADS-B
Tue 06:17:34 AM 30.0472 -94.7630 251° West 276 318 5,300 -1,200 Descending FlightAware ADS-B
Tue 06:17:49 AM 30.0408 -94.7845 251° West 275 316 5,000 -1,355 Descending FlightAware ADS-B
Tue 06:18:05 AM 30.0345 -94.8056 251° West 274 315 4,600 -1,355 Descending FlightAware ADS-B
Tue 06:18:20 AM 30.0282 -94.8268 251° West 273 314 4,300 -1,161 Descending FlightAware ADS-B
Tue 06:18:36 AM 30.0218 -94.8484 251° West 272 313 4,000 -750 Descending FlightAware ADS-B
Tue 06:18:52 AM 30.0154 -94.8697 251° West 265 305 3,900 -194 Descending FlightAware ADS-B
Tue 06:19:07 AM 30.0094 -94.8900 251° West 264 304 3,900  Level FlightAware ADS-B
Tue 06:19:22 AM 30.0034 -94.9102 251° West 255 293 3,900  Level FlightAware ADS-B
Tue 06:19:38 AM 29.9977 -94.9294 251° West 247 284 3,900  Level FlightAware ADS-B
Tue 06:19:53 AM 29.9919 -94.9487 251° West 248 285 3,900  Level FlightAware ADS-B
Tue 06:20:08 AM 29.9863 -94.9675 251° West 247 284 3,900  Level FlightAware ADS-B
Tue 06:20:19 AM 29.9822 -94.9808 250° West 247 284 3,900  Level FlightAware ADS-B
Tue 06:20:24 AM 29.9805 -94.9874 253° West 248 285 3,900  Level FlightAware ADS-B
Tue 06:20:28 AM 29.9794 -94.9922 255° West 248 285 3,900  Level FlightAware ADS-B
Tue 06:20:31 AM 29.9786 -94.9968 259° West 250 288 3,900  Level FlightAware ADS-B
Tue 06:20:34 AM 29.9782 -95.0008 263° West 251 289 3,900  Level FlightAware ADS-B
Tue 06:20:38 AM 29.9778 -95.0061 265° West 251 289 3,900  Level FlightAware ADS-B
Tue 06:20:45 AM 29.9775 -95.0151 268° West 252 290 3,900  Level FlightAware ADS-B
Tue 06:20:58 AM 29.9776 -95.0324 270° West 251 289 3,900  Level FlightAware ADS-B
Tue 06:21:13 AM 29.9774 -95.0524 269° West 237 273 3,900 -194 Level FlightAware ADS-B
Tue 06:21:29 AM 29.9775 -95.0716 270° West 231 266 3,800 -828 Descending FlightAware ADS-B
Tue 06:21:42 AM 29.9775 -95.0882 270° West 232 267 3,500 -1,241 Descending FlightAware ADS-B
Tue 06:21:58 AM 29.9776 -95.1077 270° West 234 269 3,200 -1,286 Descending FlightAware ADS-B
Tue 06:22:10 AM 29.9777 -95.1225 270° West 236 272 2,900 -1,154 Descending FlightAware ADS-B
Tue 06:22:24 AM 29.9775 -95.1408 269° West 236 272 2,700 -1,071 Descending FlightAware ADS-B
Tue 06:22:38 AM 29.9775 -95.1583 270° West 235 270 2,400 -1,241 Descending FlightAware ADS-B
Tue 06:22:53 AM 29.9776 -95.1771 270° West 230 265 2,100 -1,273 Descending FlightAware ADS-B
Tue 06:23:11 AM 29.9776 -95.1971 270° West 215 247 1,700 -1,029 Descending FlightAware ADS-B
Tue 06:23:28 AM 29.9776 -95.2156 270° West 197 227 1,500 -938 Descending FlightAware ADS-B
Tue 06:23:43 AM 29.9776 -95.2311 270° West 185 213 1,200 -968 Descending FlightAware ADS-B
Tue 06:23:59 AM 29.9776 -95.2458 270° West 173 199 1,000 -1,000 Descending FlightAware ADS-B
Tue 06:24:07 AM 29.9776 -95.2531 270° West 160 184 800 -750 Descending FlightAware ADS-B
Tue 06:24:15 AM 29.9776 -95.2595 270° West 150 173 800 -667 Level FlightAware ADS-B
Tue 06:24:25 AM 29.9777 -95.2675 271° West 146 168 600 -960 Descending FlightAware ADS-B
Tue 06:24:40 AM 29.9775 -95.2791 269° West 146 168 400 -750 Descending FlightAware ADS-B
Tue 06:24:57 AM 29.9776 -95.2918 271° West 146 168 200 -706 Descending FlightAware ADS-B
Tue 06:25:12 AM 29.9776 -95.3036 270° West 145 167 -800 Descending FlightAware ADS-B

Login

Don't have an account? Register now (free) for customized features, flight alerts, and more!